createdAt,value
2019-06-08T00:01:58.429Z,0.77
2019-06-08T00:04:28.703Z,1.03
2019-06-08T00:06:59.650Z,1.40
2019-06-08T00:09:29.704Z,1.00
2019-06-08T00:11:59.758Z,1.00
2019-06-08T00:14:31.550Z,0.97
2019-06-08T00:17:03.080Z,1.27
2019-06-08T00:19:33.193Z,0.93
2019-06-08T00:22:03.527Z,0.90
2019-06-08T00:24:33.622Z,0.90
2019-06-08T00:27:03.789Z,1.00
2019-06-08T00:29:33.888Z,0.80
2019-06-08T00:32:06.862Z,0.93
2019-06-08T00:34:37.446Z,0.90
2019-06-08T00:37:08.134Z,1.00
2019-06-08T00:39:38.404Z,1.10
2019-06-08T00:42:08.803Z,0.90
2019-06-08T00:44:38.875Z,1.17
2019-06-08T00:47:09.070Z,0.83
2019-06-08T00:49:39.348Z,0.80
2019-06-08T00:52:09.353Z,0.80
2019-06-08T00:54:39.487Z,0.90
2019-06-08T00:57:09.812Z,0.77
2019-06-08T00:59:40.207Z,0.80
2019-06-08T01:02:10.284Z,0.93
2019-06-08T01:04:40.425Z,0.70
2019-06-08T01:07:10.458Z,1.20
2019-06-08T01:09:40.577Z,1.00
2019-06-08T01:12:10.536Z,1.27
2019-06-08T01:14:40.662Z,0.90
2019-06-08T01:17:11.959Z,1.10
2019-06-08T01:19:42.246Z,1.00
2019-06-08T01:22:12.248Z,1.00
2019-06-08T01:24:43.059Z,1.20
2019-06-08T01:27:13.226Z,1.00
2019-06-08T01:29:43.253Z,1.13
2019-06-08T01:32:13.547Z,1.50
2019-06-08T01:34:43.752Z,1.13
2019-06-08T01:37:13.744Z,1.20
2019-06-08T01:39:43.904Z,1.03
2019-06-08T01:42:14.238Z,1.00
2019-06-08T01:44:44.314Z,1.17
2019-06-08T01:47:14.504Z,1.23
2019-06-08T01:49:44.967Z,1.13
2019-06-08T01:52:15.041Z,1.40
2019-06-08T01:54:45.439Z,1.27
2019-06-08T01:57:15.726Z,1.13
2019-06-08T01:59:45.591Z,1.10
2019-06-08T02:02:15.849Z,1.00
2019-06-08T02:04:45.862Z,0.90
2019-06-08T02:07:17.523Z,1.27
2019-06-08T02:09:47.606Z,1.20
2019-06-08T02:12:17.691Z,1.03
2019-06-08T02:14:47.826Z,1.00
2019-06-08T02:17:18.019Z,0.90
2019-06-08T02:19:48.604Z,1.00
2019-06-08T02:22:18.839Z,0.80
2019-06-08T02:24:49.037Z,1.00
2019-06-08T02:27:19.314Z,1.00
2019-06-08T02:29:49.484Z,1.10
2019-06-08T02:32:20.721Z,1.00
2019-06-08T02:34:50.831Z,0.80
2019-06-08T02:37:20.979Z,1.00
2019-06-08T02:39:51.529Z,1.07
2019-06-08T02:42:21.714Z,1.00
2019-06-08T02:44:51.850Z,1.20
2019-06-08T02:47:22.106Z,0.90
2019-06-08T02:49:52.158Z,1.10
2019-06-08T02:52:22.436Z,1.10
2019-06-08T02:54:53.988Z,1.10
2019-06-08T02:57:25.687Z,1.03
2019-06-08T02:59:57.996Z,1.13
2019-06-08T03:02:31.503Z,1.20
2019-06-08T03:05:04.158Z,0.90
2019-06-08T03:07:38.954Z,1.17
2019-06-08T03:10:09.448Z,1.00
2019-06-08T03:12:42.232Z,1.10
2019-06-08T03:15:13.298Z,1.20
2019-06-08T03:17:43.593Z,1.20
2019-06-08T03:20:13.662Z,1.10
2019-06-08T03:22:44.868Z,1.17
2019-06-08T03:25:14.951Z,1.20
2019-06-08T03:27:45.038Z,0.93
2019-06-08T03:30:18.590Z,1.00
2019-06-08T03:32:55.890Z,1.73
2019-06-08T03:35:19.061Z,1.10
2019-06-08T03:37:49.153Z,0.70
2019-06-08T03:40:19.742Z,0.80
2019-06-08T03:42:51.035Z,0.90
2019-06-08T03:45:21.844Z,1.10
2019-06-08T03:47:53.657Z,0.87
2019-06-08T03:50:23.725Z,0.90
2019-06-08T03:52:54.028Z,1.13
2019-06-08T03:55:25.361Z,1.00
2019-06-08T03:57:55.607Z,0.90
2019-06-08T04:00:25.936Z,1.03
2019-06-08T04:02:56.443Z,1.13
2019-06-08T04:05:26.762Z,0.80
2019-06-08T04:07:57.235Z,1.10
2019-06-08T04:10:27.748Z,0.90
2019-06-08T04:12:58.339Z,1.00
2019-06-08T04:15:28.637Z,1.10
2019-06-08T04:17:58.912Z,1.10
2019-06-08T04:20:29.033Z,1.00
2019-06-08T04:22:59.377Z,1.20
2019-06-08T04:25:29.487Z,1.00
2019-06-08T04:27:59.587Z,1.10
2019-06-08T04:30:29.527Z,0.90
2019-06-08T04:32:59.461Z,1.10
2019-06-08T04:35:29.538Z,0.80
2019-06-08T04:37:59.688Z,1.07
2019-06-08T04:40:29.863Z,0.87
2019-06-08T04:43:00.087Z,1.53
2019-06-08T04:45:30.385Z,0.80
2019-06-08T04:48:01.482Z,1.00
2019-06-08T04:50:31.770Z,1.40
2019-06-08T04:53:02.739Z,1.00
2019-06-08T04:55:32.837Z,1.13
2019-06-08T04:58:03.189Z,1.13
2019-06-08T05:00:33.567Z,1.10
2019-06-08T05:03:04.247Z,1.00
2019-06-08T05:05:34.423Z,1.10
2019-06-08T05:08:05.041Z,1.17
2019-06-08T05:10:35.279Z,1.13
2019-06-08T05:13:05.648Z,1.20
2019-06-08T05:15:35.800Z,1.20
2019-06-08T05:18:06.667Z,0.83
2019-06-08T05:20:39.275Z,1.37
2019-06-08T05:23:08.594Z,1.13
2019-06-08T05:25:39.073Z,0.97
2019-06-08T05:28:09.399Z,1.13
2019-06-08T05:30:39.529Z,1.37
2019-06-08T05:33:09.839Z,0.80
2019-06-08T05:35:41.277Z,1.20
2019-06-08T05:38:11.446Z,1.00
2019-06-08T05:40:41.564Z,1.27
2019-06-08T05:43:11.459Z,1.10
2019-06-08T05:45:41.629Z,1.10
2019-06-08T05:48:11.768Z,1.20
2019-06-08T05:50:58.769Z,1.50
2019-06-08T05:53:13.345Z,1.20
2019-06-08T05:55:43.859Z,1.20
2019-06-08T05:58:13.986Z,1.13
2019-06-08T06:00:44.272Z,1.10
2019-06-08T06:03:14.565Z,1.10
2019-06-08T06:05:44.718Z,0.80
2019-06-08T06:08:18.928Z,1.60
2019-06-08T06:10:46.873Z,1.10
2019-06-08T06:13:17.308Z,1.30
2019-06-08T06:15:47.570Z,4.03
2019-06-08T06:18:17.503Z,1.10
2019-06-08T06:20:47.703Z,1.20
2019-06-08T06:23:17.661Z,0.90
2019-06-08T06:25:47.832Z,1.30
2019-06-08T06:28:18.050Z,1.20
2019-06-08T06:30:48.435Z,1.20
2019-06-08T06:33:19.728Z,1.27
2019-06-08T06:35:50.003Z,1.40
2019-06-08T06:38:20.288Z,1.80
2019-06-08T06:40:50.327Z,1.73
2019-06-08T06:43:20.450Z,1.50
2019-06-08T06:45:50.511Z,1.57
2019-06-08T06:48:23.399Z,1.13
2019-06-08T06:50:52.577Z,1.20
2019-06-08T06:53:22.814Z,1.30
2019-06-08T06:55:53.342Z,1.10
2019-06-08T06:58:23.557Z,1.30
2019-06-08T07:00:54.608Z,1.50
2019-06-08T07:03:24.678Z,1.40
2019-06-08T07:05:54.788Z,1.33
2019-06-08T07:08:24.741Z,1.33
2019-06-08T07:10:55.272Z,1.50
2019-06-08T07:13:25.707Z,1.50
2019-06-08T07:15:58.156Z,1.40
2019-06-08T07:18:27.733Z,1.37
2019-06-08T07:20:58.589Z,1.30
2019-06-08T07:23:29.107Z,1.20
2019-06-08T07:25:59.258Z,1.47
2019-06-08T07:28:29.388Z,1.37
2019-06-08T07:30:59.478Z,1.40
2019-06-08T07:33:29.575Z,1.30
2019-06-08T07:35:59.902Z,1.40
2019-06-08T07:38:30.219Z,1.10
2019-06-08T07:41:01.768Z,1.20
2019-06-08T07:43:32.128Z,1.10
2019-06-08T07:46:02.076Z,1.20
2019-06-08T07:48:31.994Z,1.10
2019-06-08T07:51:01.992Z,1.27
2019-06-08T07:53:32.058Z,1.30
2019-06-08T07:56:02.000Z,1.33
2019-06-08T07:58:31.930Z,1.03
2019-06-08T08:01:07.713Z,1.10
2019-06-08T08:03:33.813Z,1.03
2019-06-08T08:06:03.758Z,1.33
2019-06-08T08:08:33.727Z,1.50
2019-06-08T08:11:03.703Z,1.20
2019-06-08T08:13:33.856Z,1.10
2019-06-08T08:16:04.010Z,1.10
2019-06-08T08:18:34.276Z,1.47
2019-06-08T08:21:15.461Z,1.23
2019-06-08T08:23:38.264Z,1.10
2019-06-08T08:26:08.066Z,1.10
2019-06-08T08:28:38.241Z,1.47
2019-06-08T08:31:11.365Z,1.50
2019-06-08T08:33:40.254Z,1.30
2019-06-08T08:36:10.331Z,1.33
2019-06-08T08:38:41.140Z,1.30
2019-06-08T08:41:11.327Z,1.23
2019-06-08T08:43:41.462Z,1.50
2019-06-08T08:46:11.637Z,1.30
2019-06-08T08:48:41.576Z,1.30
2019-06-08T08:51:11.935Z,1.60
2019-06-08T08:53:41.857Z,1.10
2019-06-08T08:56:12.029Z,1.30
2019-06-08T08:58:42.366Z,1.10
2019-06-08T09:01:12.327Z,1.20
2019-06-08T09:03:42.320Z,1.67
2019-06-08T09:06:12.202Z,1.30
2019-06-08T09:08:42.238Z,1.40
2019-06-08T09:11:12.209Z,1.50
2019-06-08T09:13:42.172Z,1.40
2019-06-08T09:16:12.131Z,1.23
2019-06-08T09:18:42.305Z,1.30
2019-06-08T09:21:12.319Z,1.60
2019-06-08T09:23:42.403Z,1.50
2019-06-08T09:26:13.287Z,1.80
2019-06-08T09:28:43.401Z,1.50
2019-06-08T09:31:13.352Z,2.00
2019-06-08T09:33:53.302Z,1.60
2019-06-08T09:36:17.525Z,1.40
2019-06-08T09:38:47.929Z,1.70
2019-06-08T09:41:18.678Z,1.70
2019-06-08T09:43:49.557Z,1.63
2019-06-08T09:46:19.508Z,1.33
2019-06-08T09:48:49.693Z,1.37
2019-06-08T09:51:19.891Z,3.13
2019-06-08T09:53:49.942Z,8.70
2019-06-08T09:56:20.081Z,4.03
2019-06-08T09:58:51.414Z,3.30
2019-06-08T10:01:21.700Z,2.87
2019-06-08T10:03:51.626Z,1.90
2019-06-08T10:06:22.640Z,2.17
2019-06-08T10:08:52.509Z,2.10
2019-06-08T10:11:22.526Z,1.90
2019-06-08T10:13:52.454Z,2.10
2019-06-08T10:16:22.393Z,1.93
2019-06-08T10:18:52.573Z,2.23
2019-06-08T10:21:22.638Z,2.30
2019-06-08T10:23:52.620Z,2.07
2019-06-08T10:26:22.515Z,2.20
2019-06-08T10:28:52.472Z,2.03
2019-06-08T10:31:35.620Z,1.70
2019-06-08T10:33:55.587Z,2.20
2019-06-08T10:36:28.177Z,1.97
2019-06-08T10:39:01.633Z,2.10
2019-06-08T10:41:28.990Z,1.60
2019-06-08T10:43:59.204Z,2.20
2019-06-08T10:46:29.205Z,1.50
2019-06-08T10:48:59.624Z,2.00
2019-06-08T10:51:30.847Z,1.63
2019-06-08T10:54:02.098Z,1.77
2019-06-08T10:56:32.205Z,1.90
2019-06-08T10:59:04.730Z,1.60
2019-06-08T11:01:33.941Z,1.60
2019-06-08T11:04:05.425Z,1.67
2019-06-08T11:06:39.854Z,2.03
2019-06-08T11:09:12.556Z,1.57
2019-06-08T11:11:39.198Z,1.83
2019-06-08T11:14:12.596Z,1.60
2019-06-08T11:16:40.747Z,1.80
2019-06-08T11:19:13.007Z,1.80
2019-06-08T11:21:42.336Z,1.70
2019-06-08T11:24:23.119Z,1.90
2019-06-08T11:26:44.206Z,1.73
2019-06-08T11:29:14.261Z,1.80
2019-06-08T11:31:44.277Z,2.20
2019-06-08T11:34:14.187Z,2.03
2019-06-08T11:36:44.123Z,1.63
2019-06-08T11:39:14.091Z,2.03
2019-06-08T11:41:44.005Z,1.70
2019-06-08T11:44:14.955Z,1.63
2019-06-08T11:46:47.694Z,1.90
2019-06-08T11:49:18.737Z,2.10
2019-06-08T11:51:48.893Z,1.50
2019-06-08T11:54:33.247Z,2.10
2019-06-08T11:56:53.669Z,1.73
2019-06-08T11:59:24.856Z,2.10
2019-06-08T12:01:54.810Z,2.03
2019-06-08T12:04:24.777Z,1.90
2019-06-08T12:06:54.710Z,2.00
2019-06-08T12:09:24.477Z,1.97
2019-06-08T12:11:58.061Z,1.40
2019-06-08T12:14:27.666Z,2.07
2019-06-08T12:16:58.112Z,1.90
2019-06-08T12:19:31.614Z,1.83
2019-06-08T12:22:00.753Z,1.97
2019-06-08T12:24:41.398Z,2.00
2019-06-08T12:27:10.107Z,2.10
2019-06-08T12:29:33.774Z,2.13
2019-06-08T12:32:04.770Z,1.70
2019-06-08T12:34:34.747Z,1.73
2019-06-08T12:37:05.334Z,1.93
2019-06-08T12:39:38.714Z,2.12
2019-06-08T12:42:14.791Z,1.63
2019-06-08T12:44:43.584Z,1.80
2019-06-08T12:47:16.310Z,2.07
2019-06-08T12:49:44.573Z,1.80
2019-06-08T12:52:15.781Z,1.80
2019-06-08T12:54:59.694Z,1.70
2019-06-08T12:57:21.759Z,1.77
2019-06-08T12:59:49.333Z,1.77
2019-06-08T13:02:23.895Z,1.80
2019-06-08T13:04:50.807Z,1.67
2019-06-08T13:07:20.897Z,1.90
2019-06-08T13:09:50.784Z,1.67
2019-06-08T13:12:21.927Z,1.70
2019-06-08T13:14:52.007Z,1.70
2019-06-08T13:17:21.958Z,1.70
2019-06-08T13:19:51.880Z,1.73
2019-06-08T13:22:27.823Z,1.50
2019-06-08T13:24:53.380Z,1.80
2019-06-08T13:27:23.379Z,1.87
2019-06-08T13:29:53.291Z,1.83
2019-06-08T13:32:23.160Z,2.00
2019-06-08T13:34:53.318Z,1.70
2019-06-08T13:37:23.167Z,1.70
2019-06-08T13:39:53.128Z,1.77
2019-06-08T13:42:23.210Z,1.50
2019-06-08T13:44:53.292Z,1.80
2019-06-08T13:47:23.209Z,1.90
2019-06-08T13:49:55.900Z,1.40
2019-06-08T13:52:28.170Z,1.57
2019-06-08T13:54:58.336Z,1.60
2019-06-08T13:57:28.392Z,1.90
2019-06-08T13:59:58.428Z,1.67
2019-06-08T14:02:31.468Z,2.00
2019-06-08T14:04:59.986Z,1.80
2019-06-08T14:07:34.334Z,1.67
2019-06-08T14:10:02.550Z,1.80
2019-06-08T14:12:32.795Z,1.70
2019-06-08T14:15:03.837Z,1.70
2019-06-08T14:17:33.677Z,1.93
2019-06-08T14:20:04.869Z,1.90
2019-06-08T14:22:34.813Z,1.53
2019-06-08T14:25:08.599Z,1.77
2019-06-08T14:27:37.611Z,1.40
2019-06-08T14:30:08.368Z,1.27
2019-06-08T14:32:38.492Z,1.87
2019-06-08T14:35:08.883Z,2.10
2019-06-08T14:37:38.892Z,1.70
2019-06-08T14:40:08.760Z,1.70
2019-06-08T14:42:38.612Z,1.67
2019-06-08T14:45:10.947Z,1.90
2019-06-08T14:47:41.929Z,1.93
2019-06-08T14:50:12.002Z,1.47
2019-06-08T14:52:41.856Z,1.67
2019-06-08T14:55:12.869Z,1.47
2019-06-08T14:57:42.727Z,1.77
2019-06-08T15:00:15.725Z,1.37
2019-06-08T15:02:49.699Z,1.30
2019-06-08T15:05:18.570Z,1.90
2019-06-08T15:07:48.725Z,1.63
2019-06-08T15:10:20.522Z,1.70
2019-06-08T15:12:53.563Z,1.87
2019-06-08T15:15:22.152Z,1.60
2019-06-08T15:17:52.177Z,2.33
2019-06-08T15:20:22.050Z,1.77
2019-06-08T15:22:51.978Z,1.80
2019-06-08T15:25:22.537Z,1.60
2019-06-08T15:27:52.576Z,1.40
2019-06-08T15:30:23.067Z,1.70
2019-06-08T15:32:53.055Z,1.77
2019-06-08T15:35:23.097Z,1.53
2019-06-08T15:37:53.010Z,1.80
2019-06-08T15:40:23.498Z,1.70
2019-06-08T15:42:53.517Z,1.50
2019-06-08T15:45:24.224Z,2.60
2019-06-08T15:47:54.286Z,1.60
2019-06-08T15:50:24.224Z,1.80
2019-06-08T15:52:54.799Z,1.70
2019-06-08T15:55:24.784Z,1.67
2019-06-08T15:57:54.690Z,1.60
2019-06-08T16:00:24.991Z,1.40
2019-06-08T16:02:54.979Z,1.73
2019-06-08T16:05:25.604Z,1.57
2019-06-08T16:07:55.647Z,1.90
2019-06-08T16:10:26.270Z,1.70
2019-06-08T16:12:56.354Z,1.50
2019-06-08T16:15:26.876Z,1.57
2019-06-08T16:17:56.892Z,1.80
2019-06-08T16:20:27.531Z,1.53
2019-06-08T16:22:57.601Z,1.33
2019-06-08T16:25:27.872Z,1.70
2019-06-08T16:28:00.048Z,1.40
2019-06-08T16:30:29.399Z,1.70
2019-06-08T16:32:59.421Z,1.80
2019-06-08T16:35:29.617Z,1.93
2019-06-08T16:37:59.623Z,1.70
2019-06-08T16:40:29.901Z,1.70
2019-06-08T16:43:00.956Z,1.80
2019-06-08T16:45:31.102Z,1.80
2019-06-08T16:48:01.202Z,1.60
2019-06-08T16:50:32.248Z,1.80
2019-06-08T16:53:02.220Z,1.70
2019-06-08T16:55:32.197Z,1.20
2019-06-08T16:58:05.155Z,1.30
2019-06-08T17:00:42.350Z,2.00
2019-06-08T17:03:16.871Z,1.80
2019-06-08T17:05:51.303Z,1.43
2019-06-08T17:08:25.969Z,1.57
2019-06-08T17:10:58.389Z,2.93
2019-06-08T17:13:29.809Z,6.67
2019-06-08T17:16:00.383Z,4.57
2019-06-08T17:18:34.233Z,2.20
2019-06-08T17:21:05.677Z,2.50
2019-06-08T17:26:23.158Z,2.90
2019-06-08T17:28:56.675Z,2.03
2019-06-08T17:31:31.111Z,2.00
2019-06-08T17:34:04.692Z,1.93
2019-06-08T17:36:35.085Z,1.80
2019-06-08T17:39:06.758Z,2.00
2019-06-08T17:41:36.686Z,1.50
2019-06-08T17:44:06.618Z,1.73
2019-06-08T17:46:36.827Z,2.00
2019-06-08T17:49:06.763Z,2.00
2019-06-08T17:51:37.324Z,1.63
2019-06-08T17:54:08.527Z,2.00
2019-06-08T17:56:39.168Z,2.47
2019-06-08T17:59:09.238Z,2.20
2019-06-08T18:01:39.764Z,2.10
2019-06-08T18:04:09.912Z,1.90
2019-06-08T18:06:41.472Z,1.60
2019-06-08T18:09:11.597Z,2.03
2019-06-08T18:11:43.799Z,2.10
2019-06-08T18:14:14.840Z,2.40
2019-06-08T18:16:45.304Z,2.67
2019-06-08T18:19:29.374Z,2.17
2019-06-08T18:22:04.550Z,2.10
2019-06-08T18:24:31.276Z,2.40
2019-06-08T18:27:02.063Z,2.37
2019-06-08T18:29:32.417Z,2.37
2019-06-08T18:32:02.402Z,2.03
2019-06-08T18:34:34.659Z,1.87
2019-06-08T18:37:05.040Z,2.20
2019-06-08T18:39:36.062Z,2.30
2019-06-08T18:42:08.170Z,1.90
2019-06-08T18:44:40.794Z,2.10
2019-06-08T18:47:10.889Z,2.67
2019-06-08T18:49:42.743Z,3.70
2019-06-08T18:52:12.820Z,3.43
2019-06-08T18:54:44.180Z,3.30
2019-06-08T18:57:17.521Z,3.83
2019-06-08T18:59:51.086Z,3.53
2019-06-08T19:02:18.532Z,2.80
2019-06-08T19:04:49.627Z,2.77
2019-06-08T19:07:19.707Z,3.20
2019-06-08T19:09:49.968Z,4.07
2019-06-08T19:12:19.975Z,3.50
2019-06-08T19:14:52.147Z,3.23
2019-06-08T19:17:21.820Z,2.87
2019-06-08T19:19:52.691Z,2.50
2019-06-08T19:22:22.733Z,2.83
2019-06-08T19:24:52.728Z,3.40
2019-06-08T19:27:23.659Z,3.03
2019-06-08T19:29:53.511Z,2.23
2019-06-08T19:32:23.375Z,2.53
2019-06-08T19:34:54.812Z,2.53
2019-06-08T19:37:24.900Z,2.40
2019-06-08T19:39:54.854Z,2.30
2019-06-08T19:42:36.988Z,2.70
2019-06-08T19:45:04.923Z,2.23
2019-06-08T19:47:28.092Z,2.37
2019-06-08T19:49:58.105Z,2.43
2019-06-08T19:52:28.072Z,2.77
2019-06-08T19:54:58.188Z,3.07
2019-06-08T19:57:29.283Z,3.23
2019-06-08T20:00:00.419Z,2.60
2019-06-08T20:02:30.876Z,2.67
2019-06-08T20:05:00.814Z,2.80
2019-06-08T20:07:31.696Z,2.33
2019-06-08T20:10:02.171Z,2.37
2019-06-08T20:12:32.190Z,2.10
2019-06-08T20:15:02.140Z,2.30
2019-06-08T20:17:32.089Z,2.40
2019-06-08T20:20:02.203Z,2.40
2019-06-08T20:22:32.563Z,2.33
2019-06-08T20:25:06.983Z,2.30
2019-06-08T20:27:37.239Z,2.60
2019-06-08T20:30:09.607Z,2.70
2019-06-08T20:32:40.478Z,2.90
2019-06-08T20:35:12.581Z,2.50
2019-06-08T20:37:43.571Z,2.97
2019-06-08T20:40:14.972Z,3.10
2019-06-08T20:42:48.988Z,2.50
2019-06-08T20:45:18.795Z,3.00
2019-06-08T20:47:51.164Z,2.83
2019-06-08T20:50:20.590Z,3.00
2019-06-08T20:52:52.250Z,3.23
2019-06-08T20:55:22.753Z,3.60
2019-06-08T20:57:53.740Z,2.77
2019-06-08T21:00:23.967Z,3.00
2019-06-08T21:02:55.266Z,2.60
2019-06-08T21:05:27.845Z,2.27
2019-06-08T21:07:58.915Z,2.70
2019-06-08T21:10:31.054Z,2.77
2019-06-08T21:13:02.946Z,2.30
2019-06-08T21:15:32.858Z,2.53
2019-06-08T21:18:07.891Z,2.60
2019-06-08T21:20:37.937Z,2.80
2019-06-08T21:23:08.335Z,4.97
2019-06-08T21:25:38.938Z,3.50
2019-06-08T21:28:08.868Z,3.37
2019-06-08T21:30:38.832Z,3.97
2019-06-08T21:33:08.756Z,3.00
2019-06-08T21:35:38.643Z,2.80
2019-06-08T21:38:22.584Z,2.60
2019-06-08T21:40:40.704Z,2.40
2019-06-08T21:43:10.664Z,2.63
2019-06-08T21:45:42.380Z,2.37
2019-06-08T21:48:12.479Z,2.50
2019-06-08T21:50:43.067Z,2.57
2019-06-08T21:53:13.321Z,2.60
2019-06-08T21:55:43.887Z,2.77
2019-06-08T21:58:13.948Z,2.80
2019-06-08T22:00:44.389Z,2.90
2019-06-08T22:03:17.543Z,3.30
2019-06-08T22:05:47.846Z,3.30
2019-06-08T22:08:17.938Z,3.13
2019-06-08T22:10:47.923Z,3.03
2019-06-08T22:13:17.878Z,3.10
2019-06-08T22:15:47.909Z,3.30
2019-06-08T22:18:18.441Z,3.23
2019-06-08T22:20:48.527Z,3.40
2019-06-08T22:23:18.463Z,3.43
2019-06-08T22:25:48.337Z,3.23
2019-06-08T22:28:18.280Z,3.20
2019-06-08T22:30:48.389Z,3.40
2019-06-08T22:33:18.366Z,3.03
2019-06-08T22:35:48.286Z,3.80
2019-06-08T22:38:18.186Z,3.40
2019-06-08T22:40:48.117Z,3.00
2019-06-08T22:43:18.998Z,2.90
2019-06-08T22:45:49.538Z,3.40
2019-06-08T22:48:19.456Z,3.10
2019-06-08T22:50:49.447Z,3.13
2019-06-08T22:53:19.362Z,3.37
2019-06-08T22:55:49.289Z,3.20
2019-06-08T22:58:19.402Z,3.10
2019-06-08T23:00:52.870Z,3.20
2019-06-08T23:03:22.166Z,2.80
2019-06-08T23:05:52.097Z,3.67
2019-06-08T23:08:21.948Z,3.30
2019-06-08T23:10:51.811Z,3.50
2019-06-08T23:13:21.750Z,3.70
2019-06-08T23:15:55.270Z,3.27
2019-06-08T23:18:26.396Z,3.20
2019-06-08T23:20:58.250Z,3.77
2019-06-08T23:23:28.157Z,3.50
2019-06-08T23:26:00.559Z,3.43
2019-06-08T23:28:29.604Z,3.40
2019-06-08T23:31:09.407Z,3.30
2019-06-08T23:33:31.025Z,3.40
2019-06-08T23:36:35.187Z,3.10
2019-06-08T23:38:32.438Z,2.90
2019-06-08T23:41:03.626Z,3.70
2019-06-08T23:43:33.647Z,3.53
2019-06-08T23:46:03.988Z,3.63
2019-06-08T23:48:34.039Z,3.50
2019-06-08T23:51:04.372Z,3.50
2019-06-08T23:53:34.415Z,3.70
2019-06-08T23:56:06.090Z,3.60
2019-06-08T23:58:37.191Z,3.50
